Shageluk Airport

About
Name: Shageluk Airport
Identifier:  SHX/PAHX
Serves:  Shageluk, Alaska
Owner:  Alaska DOT&PF - Northern Region
Public/Private:  Public
Local Time:  17. Aug 20:31 AKDT
Description: Shageluk Airport is a state-owned public-use airport located one nautical mile north of the central business district of Shageluk, a city in the Yukon-Koyukuk Census Area of the U.S. state of Alaska.
Source: Wikipedia
Location
Runways
Identifier Length (m/ft) Surface
16/34 3,400/3,400 Gravel
18W/36W 5,000/5,000 Water
Flights per Day
1 flights
Distance: 102km (63mi)
Punctuality
76% (0 flights per day delayed)
Delay Average: 59 minutes
Current Weather
 17 C (Humidity: 55%)
  9kt (16km/h / 10mph) from 40°
  16km (10 mi.)
 
 METAR PAHX 180356Z AUTO 04009KT 10SM CLR 17/08 A3049 RMK AO2 SLP326 T01670078

Current Flights

Departures
Number Departure To Airline
Arrivals
Number Arrival From Airline

Current Delays

Departures
N/A
Arrivals
N/A

Destinations

Top Destinations
Airport Flights
per week
Seats
per week
  Anchorage (ANC) 0 - 0 0
  Kalskag (KLG) 0 - 0 0

Airlines & Planes

Top Airlines
Airline Flights
per Day
Seats
per Day
Alaska Central Express 0 -
SkyBus International Airlines 0 -
Top Plane Types
Model Flights Seats
Beech 1900D 0.1/day - 0
Pilatus PC-12 0.0/day - 0